createdAt,value
2022-10-01T00:02:04.080Z,99.90
2022-10-01T00:04:31.613Z,99.90
2022-10-01T00:07:03.862Z,99.90
2022-10-01T00:09:32.611Z,99.90
2022-10-01T00:11:59.955Z,99.90
2022-10-01T00:14:28.085Z,99.90
2022-10-01T00:16:55.574Z,99.90
2022-10-01T00:19:23.061Z,99.90
2022-10-01T00:21:50.469Z,99.90
2022-10-01T00:24:17.722Z,99.90
2022-10-01T00:26:45.746Z,99.90
2022-10-01T00:29:14.951Z,99.90
2022-10-01T00:31:42.990Z,99.90
2022-10-01T00:34:13.248Z,99.90
2022-10-01T00:36:41.172Z,99.80
2022-10-01T00:39:10.370Z,99.70
2022-10-01T00:41:38.250Z,99.80
2022-10-01T00:44:29.920Z,99.80
2022-10-01T00:47:04.087Z,99.70
2022-10-01T00:49:35.482Z,99.40
2022-10-01T00:52:08.342Z,99.30
2022-10-01T00:54:45.722Z,99.50
2022-10-01T00:57:17.028Z,99.30
2022-10-01T00:59:45.945Z,99.00
2022-10-01T01:02:13.342Z,99.40
2022-10-01T01:04:41.642Z,99.80
2022-10-01T01:07:09.933Z,99.90
2022-10-01T01:09:49.107Z,99.90
2022-10-01T01:12:40.336Z,99.90
2022-10-01T01:15:19.503Z,99.90
2022-10-01T01:17:55.769Z,99.50
2022-10-01T01:20:34.485Z,99.70
2022-10-01T01:23:14.615Z,99.80
2022-10-01T01:25:57.309Z,99.90
2022-10-01T01:28:36.289Z,99.80
2022-10-01T01:31:14.602Z,99.40
2022-10-01T01:33:46.053Z,98.70
2022-10-01T01:36:20.382Z,99.20
2022-10-01T01:38:55.043Z,99.80
2022-10-01T01:41:26.887Z,99.90
2022-10-01T01:43:57.629Z,99.90
2022-10-01T01:46:31.819Z,99.90
2022-10-01T01:49:02.686Z,99.90
2022-10-01T01:51:47.570Z,99.90
2022-10-01T01:54:15.034Z,99.90
2022-10-01T01:56:42.521Z,99.70
2022-10-01T01:59:10.033Z,99.60
2022-10-01T02:01:40.265Z,99.50
2022-10-01T02:04:26.143Z,99.10
2022-10-01T02:07:17.874Z,99.00
2022-10-01T02:10:04.290Z,98.40
2022-10-01T02:12:46.967Z,98.50
2022-10-01T02:15:39.793Z,99.10
2022-10-01T02:18:17.253Z,99.80
2022-10-01T02:20:52.491Z,99.90
2022-10-01T02:23:25.829Z,99.90
2022-10-01T02:25:58.091Z,99.90
2022-10-01T02:28:26.122Z,99.90
2022-10-01T02:30:58.291Z,99.90
2022-10-01T02:33:30.360Z,99.90
2022-10-01T02:35:59.845Z,99.90
2022-10-01T02:38:29.936Z,99.90
2022-10-01T02:41:03.168Z,99.90
2022-10-01T02:43:42.734Z,99.60
2022-10-01T02:46:37.013Z,99.70
2022-10-01T02:49:05.429Z,99.90
2022-10-01T02:51:48.982Z,99.90
2022-10-01T02:54:47.360Z,99.90
2022-10-01T02:57:23.151Z,99.90
2022-10-01T02:59:59.970Z,99.90
2022-10-01T03:02:31.930Z,99.90
2022-10-01T03:05:00.239Z,99.90
2022-10-01T03:07:30.120Z,99.90
2022-10-01T03:09:57.637Z,99.90
2022-10-01T03:12:25.290Z,99.90
2022-10-01T03:14:53.381Z,99.90
2022-10-01T03:17:20.876Z,99.90
2022-10-01T03:19:48.434Z,99.90
2022-10-01T03:22:18.575Z,99.90
2022-10-01T03:24:45.837Z,99.90
2022-10-01T03:27:13.065Z,99.90
2022-10-01T03:29:40.304Z,99.90
2022-10-01T03:32:07.613Z,99.70
2022-10-01T03:34:34.947Z,99.70
2022-10-01T03:37:02.461Z,99.60
2022-10-01T03:39:30.329Z,99.50
2022-10-01T03:41:58.339Z,99.40
2022-10-01T03:44:25.715Z,99.50
2022-10-01T03:46:53.065Z,99.50
2022-10-01T03:49:20.522Z,99.60
2022-10-01T03:51:47.873Z,99.60
2022-10-01T03:54:15.343Z,99.40
2022-10-01T03:56:42.843Z,99.20
2022-10-01T03:59:13.342Z,99.40
2022-10-01T04:01:40.714Z,99.50
2022-10-01T04:04:08.058Z,99.80
2022-10-01T04:06:35.386Z,99.90
2022-10-01T04:09:02.766Z,99.90
2022-10-01T04:11:30.503Z,99.90
2022-10-01T04:13:58.495Z,99.90
2022-10-01T04:16:25.865Z,99.90
2022-10-01T04:18:53.651Z,99.50
2022-10-01T04:21:21.255Z,99.70
2022-10-01T04:23:50.026Z,99.80
2022-10-01T04:26:18.823Z,99.70
2022-10-01T04:28:46.994Z,99.80
2022-10-01T04:31:28.183Z,99.90
2022-10-01T04:33:58.166Z,99.90
2022-10-01T04:36:26.496Z,99.90
2022-10-01T04:39:00.871Z,99.90
2022-10-01T04:41:31.138Z,99.90
2022-10-01T04:44:00.309Z,99.90
2022-10-01T04:46:30.416Z,99.90
2022-10-01T04:48:58.480Z,99.90
2022-10-01T04:51:25.820Z,99.90
2022-10-01T04:53:53.599Z,99.90
2022-10-01T04:56:20.791Z,99.70
2022-10-01T04:58:49.330Z,99.90
2022-10-01T05:01:16.566Z,99.90
2022-10-01T05:03:43.870Z,99.90
2022-10-01T05:06:11.178Z,99.90
2022-10-01T05:08:39.294Z,99.60
2022-10-01T05:11:06.610Z,99.50
2022-10-01T05:13:33.921Z,99.00
2022-10-01T05:16:03.176Z,99.20
2022-10-01T05:18:30.627Z,99.50
2022-10-01T05:20:58.305Z,99.70
2022-10-01T05:23:25.868Z,99.50
2022-10-01T05:25:53.412Z,99.70
2022-10-01T05:28:22.593Z,99.90
2022-10-01T05:30:53.433Z,99.90
2022-10-01T05:33:21.288Z,99.90
2022-10-01T05:35:48.467Z,99.90
2022-10-01T05:38:15.820Z,99.60
2022-10-01T05:40:46.388Z,99.50
2022-10-01T05:43:13.827Z,99.30
2022-10-01T05:45:46.999Z,98.70
2022-10-01T05:48:14.449Z,98.80
2022-10-01T05:50:42.650Z,98.80
2022-10-01T05:53:11.913Z,98.30
2022-10-01T05:55:39.325Z,98.20
2022-10-01T05:58:10.645Z,97.70
2022-10-01T06:00:44.165Z,97.20
2022-10-01T06:03:13.262Z,97.40
2022-10-01T06:05:41.114Z,97.30
2022-10-01T06:08:11.755Z,97.10
2022-10-01T06:10:38.982Z,96.70
2022-10-01T06:13:06.924Z,96.70
2022-10-01T06:15:39.887Z,96.90
2022-10-01T06:18:10.625Z,97.20
2022-10-01T06:20:38.971Z,97.40
2022-10-01T06:23:10.202Z,97.10
2022-10-01T06:25:38.568Z,96.70
2022-10-01T06:28:08.244Z,96.50
2022-10-01T06:30:40.259Z,96.70
2022-10-01T06:33:11.536Z,96.10
2022-10-01T06:35:47.484Z,96.30
2022-10-01T06:38:16.324Z,97.00
2022-10-01T06:40:43.649Z,97.50
2022-10-01T06:43:11.037Z,97.40
2022-10-01T06:45:45.285Z,97.10
2022-10-01T06:48:15.247Z,96.90
2022-10-01T06:50:46.998Z,97.00
2022-10-01T06:53:16.138Z,97.70
2022-10-01T06:55:44.669Z,98.00
2022-10-01T06:58:17.882Z,97.80
2022-10-01T07:00:48.998Z,97.50
2022-10-01T07:03:21.416Z,97.70
2022-10-01T07:05:50.121Z,97.50
2022-10-01T07:08:18.030Z,97.20
2022-10-01T07:10:45.822Z,96.60
2022-10-01T07:13:17.764Z,96.10
2022-10-01T07:15:49.524Z,95.60
2022-10-01T07:18:17.416Z,95.90
2022-10-01T07:20:44.714Z,95.90
2022-10-01T07:23:14.109Z,95.40
2022-10-01T07:25:42.390Z,95.60
2022-10-01T07:28:16.953Z,94.90
2022-10-01T07:31:00.362Z,95.00
2022-10-01T07:33:28.706Z,94.50
2022-10-01T07:35:56.159Z,93.60
2022-10-01T07:38:23.469Z,94.30
2022-10-01T07:40:52.141Z,94.50
2022-10-01T07:43:19.432Z,94.30
2022-10-01T07:45:50.792Z,93.20
2022-10-01T07:48:19.449Z,93.40
2022-10-01T07:50:46.771Z,93.10
2022-10-01T07:53:14.237Z,92.60
2022-10-01T07:55:41.610Z,92.10
2022-10-01T07:58:09.907Z,92.20
2022-10-01T08:00:38.226Z,91.80
2022-10-01T08:03:06.508Z,91.10
2022-10-01T08:05:36.016Z,90.30
2022-10-01T08:08:07.379Z,89.60
2022-10-01T08:10:36.956Z,90.50
2022-10-01T08:13:15.182Z,91.20
2022-10-01T08:15:49.784Z,92.50
2022-10-01T08:18:17.790Z,92.10
2022-10-01T08:20:45.167Z,91.80
2022-10-01T08:23:14.941Z,91.50
2022-10-01T08:25:43.666Z,91.20
2022-10-01T08:28:12.081Z,90.80
2022-10-01T08:30:45.933Z,90.80
2022-10-01T08:33:14.897Z,91.70
2022-10-01T08:35:43.828Z,91.20
2022-10-01T08:38:12.416Z,92.30
2022-10-01T08:40:47.463Z,91.80
2022-10-01T08:43:26.316Z,92.30
2022-10-01T08:45:59.720Z,92.20
2022-10-01T08:49:01.066Z,91.40
2022-10-01T08:51:33.101Z,90.90
2022-10-01T08:54:29.448Z,90.80
2022-10-01T08:57:01.056Z,90.40
2022-10-01T08:59:43.938Z,90.90
2022-10-01T09:02:25.853Z,91.10
2022-10-01T09:05:08.384Z,90.90
2022-10-01T09:07:45.594Z,91.40
2022-10-01T09:10:40.504Z,88.40
2022-10-01T09:13:18.807Z,89.00
2022-10-01T09:15:57.124Z,80.60
2022-10-01T09:18:26.034Z,70.60
2022-10-01T09:20:58.746Z,71.20
2022-10-01T09:23:45.442Z,70.80
2022-10-01T09:26:13.449Z,72.10
2022-10-01T09:28:41.773Z,69.40
2022-10-01T09:31:38.574Z,68.40
2022-10-01T09:34:15.796Z,67.00
2022-10-01T09:37:14.871Z,66.70
2022-10-01T09:40:12.990Z,62.30
2022-10-01T09:42:40.595Z,64.20
2022-10-01T09:45:14.252Z,64.40
2022-10-01T09:47:44.412Z,63.70
2022-10-01T09:50:17.064Z,61.60
2022-10-01T09:52:48.864Z,58.20
2022-10-01T09:55:18.887Z,63.40
2022-10-01T09:58:09.402Z,59.60
2022-10-01T10:00:40.950Z,61.80
2022-10-01T10:03:09.922Z,60.00
2022-10-01T10:05:43.795Z,61.40
2022-10-01T10:08:23.748Z,59.60
2022-10-01T10:11:01.936Z,59.90
2022-10-01T10:13:35.417Z,61.60
2022-10-01T10:16:15.783Z,58.70
2022-10-01T10:18:46.749Z,61.80
2022-10-01T10:21:22.830Z,59.10
2022-10-01T10:24:04.593Z,61.60
2022-10-01T10:26:39.024Z,58.20
2022-10-01T10:29:09.454Z,57.40
2022-10-01T10:31:46.563Z,55.00
2022-10-01T10:34:18.627Z,57.30
2022-10-01T10:36:46.948Z,56.30
2022-10-01T10:39:21.799Z,57.80
2022-10-01T10:41:51.910Z,53.90
2022-10-01T10:44:21.533Z,53.50
2022-10-01T10:46:51.682Z,53.00
2022-10-01T10:49:32.483Z,51.10
2022-10-01T10:52:01.691Z,51.00
2022-10-01T10:54:40.772Z,54.50
2022-10-01T10:57:28.907Z,50.00
2022-10-01T11:00:00.279Z,51.50
2022-10-01T11:02:30.666Z,50.00
2022-10-01T11:04:59.192Z,51.10
2022-10-01T11:07:27.950Z,49.10
2022-10-01T11:10:06.148Z,48.80
2022-10-01T11:12:49.882Z,50.00
2022-10-01T11:15:47.663Z,48.10
2022-10-01T11:18:22.898Z,52.10
2022-10-01T11:21:00.859Z,50.10
2022-10-01T11:23:53.066Z,50.00
2022-10-01T11:26:34.624Z,51.50
2022-10-01T11:29:26.436Z,49.60
2022-10-01T11:32:03.015Z,50.00
2022-10-01T11:34:57.162Z,51.40
2022-10-01T11:37:36.171Z,47.80
2022-10-01T11:40:17.997Z,49.80
2022-10-01T11:43:11.932Z,50.90
2022-10-01T11:45:49.878Z,46.10
2022-10-01T11:48:53.528Z,46.80
2022-10-01T11:51:27.205Z,46.20
2022-10-01T11:54:00.735Z,48.90
2022-10-01T11:56:52.101Z,47.50
2022-10-01T11:59:37.722Z,46.50
2022-10-01T12:02:30.949Z,49.00
2022-10-01T12:05:21.191Z,50.00
2022-10-01T12:07:51.278Z,49.10
2022-10-01T12:10:38.994Z,49.30
2022-10-01T12:13:32.944Z,49.70
2022-10-01T12:16:24.845Z,50.70
2022-10-01T12:22:15.784Z,48.60
2022-10-01T12:24:45.807Z,48.10
2022-10-01T12:27:28.155Z,49.00
2022-10-01T12:30:16.995Z,48.00
2022-10-01T12:32:50.437Z,49.20
2022-10-01T12:35:36.605Z,46.10
2022-10-01T12:38:08.672Z,47.40
2022-10-01T12:41:13.099Z,49.10
2022-10-01T12:43:57.613Z,47.50
2022-10-01T12:46:46.540Z,47.10
2022-10-01T12:49:39.510Z,47.70
2022-10-01T12:52:33.734Z,44.60
2022-10-01T12:55:29.507Z,46.10
2022-10-01T12:58:08.882Z,45.80
2022-10-01T13:01:15.773Z,47.00
2022-10-01T13:04:17.450Z,46.30
2022-10-01T13:07:03.268Z,45.70
2022-10-01T13:09:48.924Z,47.20
2022-10-01T13:12:29.175Z,47.70
2022-10-01T13:14:57.180Z,48.60
2022-10-01T13:17:52.571Z,47.40
2022-10-01T13:20:41.294Z,46.70
2022-10-01T13:23:30.561Z,48.10
2022-10-01T13:26:13.326Z,50.00
2022-10-01T13:29:00.627Z,49.40
2022-10-01T13:31:39.593Z,50.10
2022-10-01T13:34:35.761Z,50.70
2022-10-01T13:37:36.468Z,50.00
2022-10-01T13:40:19.842Z,49.90
2022-10-01T13:42:48.758Z,50.20
2022-10-01T13:46:03.861Z,49.10
2022-10-01T13:49:11.917Z,49.10
2022-10-01T13:51:47.420Z,49.70
2022-10-01T13:54:29.070Z,48.60
2022-10-01T13:57:08.697Z,48.30
2022-10-01T13:59:37.927Z,49.50
2022-10-01T14:02:33.026Z,47.20
2022-10-01T14:05:31.064Z,49.00
2022-10-01T14:08:29.746Z,49.10
2022-10-01T14:11:55.691Z,49.10
2022-10-01T14:14:58.966Z,49.90
2022-10-01T14:17:32.365Z,51.10
2022-10-01T14:20:01.614Z,50.00
2022-10-01T14:22:53.103Z,51.60
2022-10-01T14:25:32.587Z,51.90
2022-10-01T14:28:02.777Z,52.10
2022-10-01T14:30:42.939Z,53.20
2022-10-01T14:33:27.854Z,53.10
2022-10-01T14:36:29.740Z,52.70
2022-10-01T14:39:20.675Z,51.50
2022-10-01T14:41:50.898Z,52.70
2022-10-01T14:44:29.739Z,52.80
2022-10-01T14:46:59.429Z,53.60
2022-10-01T14:49:30.947Z,54.60
2022-10-01T14:52:04.852Z,55.60
2022-10-01T14:54:51.566Z,56.10
2022-10-01T14:57:29.867Z,58.60
2022-10-01T14:59:59.612Z,56.20
2022-10-01T15:02:29.182Z,54.60
2022-10-01T15:04:57.660Z,55.00
2022-10-01T15:07:28.203Z,53.50
2022-10-01T15:10:07.701Z,55.10
2022-10-01T15:12:40.648Z,53.10
2022-10-01T15:15:24.873Z,54.10
2022-10-01T15:17:52.988Z,52.90
2022-10-01T15:20:20.327Z,52.80
2022-10-01T15:22:50.143Z,54.30
2022-10-01T15:25:24.037Z,50.10
2022-10-01T15:27:54.400Z,50.30
2022-10-01T15:30:22.384Z,52.90
2022-10-01T15:32:51.066Z,51.30
2022-10-01T15:35:21.545Z,52.00
2022-10-01T15:37:51.274Z,52.30
2022-10-01T15:40:29.616Z,54.60
2022-10-01T15:43:15.205Z,55.30
2022-10-01T15:45:47.852Z,55.30
2022-10-01T15:48:30.292Z,56.60
2022-10-01T15:51:01.658Z,57.60
2022-10-01T15:53:30.106Z,57.30
2022-10-01T15:55:59.897Z,58.00
2022-10-01T15:58:32.409Z,58.30
2022-10-01T16:01:11.529Z,59.00
2022-10-01T16:03:41.541Z,59.70
2022-10-01T16:06:19.822Z,60.00
2022-10-01T16:09:07.109Z,60.30
2022-10-01T16:11:51.216Z,61.40
2022-10-01T16:14:33.062Z,61.00
2022-10-01T16:17:18.639Z,61.30
2022-10-01T16:19:53.819Z,60.90
2022-10-01T16:22:24.119Z,61.40
2022-10-01T16:24:53.017Z,61.50
2022-10-01T16:27:35.439Z,61.50
2022-10-01T16:30:27.246Z,62.40
2022-10-01T16:32:55.529Z,61.40
2022-10-01T16:35:28.197Z,61.80
2022-10-01T16:37:58.072Z,63.20
2022-10-01T16:40:28.520Z,63.40
2022-10-01T16:42:55.933Z,63.20
2022-10-01T16:45:25.624Z,63.10
2022-10-01T16:47:54.065Z,62.90
2022-10-01T16:50:22.582Z,63.30
2022-10-01T16:52:56.883Z,63.40
2022-10-01T16:55:26.794Z,63.20
2022-10-01T16:57:55.054Z,63.70
2022-10-01T17:00:25.815Z,63.30
2022-10-01T17:02:54.395Z,62.30
2022-10-01T17:05:31.215Z,62.60
2022-10-01T17:08:01.047Z,61.90
2022-10-01T17:10:31.141Z,61.30
2022-10-01T17:12:59.702Z,62.00
2022-10-01T17:15:28.645Z,62.40
2022-10-01T17:17:57.916Z,62.60
2022-10-01T17:20:28.796Z,62.60
2022-10-01T17:22:57.441Z,63.40
2022-10-01T17:25:31.197Z,63.70
2022-10-01T17:27:59.783Z,62.80
2022-10-01T17:30:29.949Z,63.00
2022-10-01T17:33:00.049Z,62.20
2022-10-01T17:35:28.831Z,63.20
2022-10-01T17:37:56.270Z,63.20
2022-10-01T17:40:23.554Z,63.00
2022-10-01T17:42:51.640Z,63.00
2022-10-01T17:45:19.003Z,62.90
2022-10-01T17:47:48.540Z,63.20
2022-10-01T17:50:16.532Z,63.10
2022-10-01T17:52:47.134Z,62.70
2022-10-01T17:55:15.180Z,61.80
2022-10-01T17:57:42.456Z,61.70
2022-10-01T18:00:10.408Z,62.10
2022-10-01T18:02:42.865Z,61.60
2022-10-01T18:05:14.574Z,62.20
2022-10-01T18:07:42.653Z,61.70
2022-10-01T18:10:12.078Z,61.90
2022-10-01T18:12:40.036Z,61.20
2022-10-01T18:15:08.210Z,61.30
2022-10-01T18:17:43.199Z,61.20
2022-10-01T18:20:10.895Z,60.90
2022-10-01T18:22:38.952Z,61.40
2022-10-01T18:25:07.588Z,61.10
2022-10-01T18:27:35.701Z,61.30
2022-10-01T18:30:07.073Z,61.30
2022-10-01T18:32:42.588Z,61.70
2022-10-01T18:35:21.172Z,63.00
2022-10-01T18:37:56.063Z,63.70
2022-10-01T18:40:33.740Z,63.80
2022-10-01T18:43:07.570Z,64.00
2022-10-01T18:45:58.084Z,64.20
2022-10-01T18:48:55.325Z,64.90
2022-10-01T18:52:07.762Z,65.00
2022-10-01T18:54:54.857Z,64.90
2022-10-01T18:57:37.840Z,64.80
2022-10-01T19:00:23.613Z,64.70
2022-10-01T19:02:59.859Z,65.20
2022-10-01T19:05:58.676Z,65.70
2022-10-01T19:09:07.772Z,66.40
2022-10-01T19:11:48.240Z,66.70
2022-10-01T19:14:21.832Z,67.10
2022-10-01T19:17:13.268Z,66.70
2022-10-01T19:19:43.629Z,67.10
2022-10-01T19:22:15.054Z,66.90
2022-10-01T19:25:00.841Z,67.20
2022-10-01T19:27:55.624Z,67.30
2022-10-01T19:30:23.167Z,67.20
2022-10-01T19:33:01.439Z,66.90
2022-10-01T19:35:54.184Z,66.70
2022-10-01T19:38:33.376Z,66.30
2022-10-01T19:41:11.796Z,67.30
2022-10-01T19:44:00.283Z,67.30
2022-10-01T19:46:38.466Z,67.50
2022-10-01T19:49:13.389Z,67.00
2022-10-01T19:51:59.635Z,67.00
2022-10-01T19:54:38.059Z,67.40
2022-10-01T19:57:29.588Z,67.60
2022-10-01T20:00:14.712Z,67.60
2022-10-01T20:02:49.674Z,67.30
2022-10-01T20:05:25.229Z,67.20
2022-10-01T20:08:01.653Z,67.30
2022-10-01T20:10:43.949Z,67.40
2022-10-01T20:13:44.116Z,67.80
2022-10-01T20:16:27.419Z,68.20
2022-10-01T20:19:16.420Z,68.10
2022-10-01T20:22:01.612Z,68.30
2022-10-01T20:24:50.505Z,68.20
2022-10-01T20:27:49.600Z,68.00
2022-10-01T20:30:20.406Z,67.70
2022-10-01T20:33:25.455Z,67.50
2022-10-01T20:36:16.776Z,67.20
2022-10-01T20:39:04.000Z,66.40
2022-10-01T20:41:42.559Z,66.40
2022-10-01T20:44:15.055Z,66.40
2022-10-01T20:46:47.255Z,67.10
2022-10-01T20:49:23.529Z,68.60
2022-10-01T20:51:54.877Z,69.80
2022-10-01T20:54:31.714Z,70.50
2022-10-01T20:57:19.924Z,71.60
2022-10-01T20:59:53.923Z,72.50
2022-10-01T21:02:34.751Z,73.20
2022-10-01T21:05:17.851Z,74.10
2022-10-01T21:07:51.518Z,74.30
2022-10-01T21:10:26.436Z,74.40
2022-10-01T21:13:20.698Z,74.60
2022-10-01T21:16:09.234Z,75.50
2022-10-01T21:18:44.045Z,78.60
2022-10-01T21:21:20.858Z,79.10
2022-10-01T21:24:37.114Z,78.60
2022-10-01T21:27:35.819Z,78.00
2022-10-01T21:30:08.871Z,78.50
2022-10-01T21:32:52.046Z,78.20
2022-10-01T21:35:24.293Z,78.30
2022-10-01T21:38:05.712Z,77.90
2022-10-01T21:40:50.140Z,78.20
2022-10-01T21:43:37.590Z,79.40
2022-10-01T21:46:44.747Z,78.10
2022-10-01T21:49:43.834Z,81.00
2022-10-01T21:52:18.931Z,82.00
2022-10-01T21:55:19.774Z,81.30
2022-10-01T21:57:50.621Z,82.40
2022-10-01T22:00:28.858Z,81.70
2022-10-01T22:03:28.960Z,83.90
2022-10-01T22:05:56.298Z,84.60
2022-10-01T22:08:36.917Z,84.40
2022-10-01T22:11:08.633Z,84.00
2022-10-01T22:13:42.472Z,83.10
2022-10-01T22:16:14.648Z,83.10
2022-10-01T22:18:52.970Z,83.50
2022-10-01T22:21:47.177Z,83.50
2022-10-01T22:24:18.923Z,83.40
2022-10-01T22:26:57.930Z,82.80
2022-10-01T22:29:29.116Z,82.70
2022-10-01T22:32:03.232Z,83.80
2022-10-01T22:34:42.637Z,84.20
2022-10-01T22:37:21.284Z,83.60
2022-10-01T22:39:54.947Z,83.80
2022-10-01T22:42:37.288Z,83.70
2022-10-01T22:45:16.729Z,83.60
2022-10-01T22:47:58.144Z,85.90
2022-10-01T22:50:49.068Z,87.60
2022-10-01T22:53:41.350Z,87.80
2022-10-01T22:56:16.861Z,88.10
2022-10-01T22:59:14.141Z,87.20
2022-10-01T23:01:56.603Z,85.10
2022-10-01T23:04:51.577Z,85.20
2022-10-01T23:07:38.538Z,84.70
2022-10-01T23:10:27.711Z,84.20
2022-10-01T23:13:28.605Z,82.90
2022-10-01T23:16:06.200Z,83.50
2022-10-01T23:18:42.990Z,84.30
2022-10-01T23:21:27.803Z,85.60
2022-10-01T23:24:22.380Z,85.50
2022-10-01T23:27:14.631Z,87.90
2022-10-01T23:29:53.934Z,89.30
2022-10-01T23:32:39.713Z,89.30
2022-10-01T23:35:42.825Z,87.50
2022-10-01T23:38:25.097Z,87.40
2022-10-01T23:40:52.399Z,86.00
2022-10-01T23:43:31.352Z,85.70
2022-10-01T23:46:17.905Z,89.00
2022-10-01T23:48:51.192Z,88.20
2022-10-01T23:51:27.634Z,88.10
2022-10-01T23:54:19.494Z,87.50
2022-10-01T23:56:52.441Z,88.90
2022-10-01T23:59:41.564Z,88.70
